TNCMTAPA

Guest
Details From TNCM - St Maarten - Princess Juliana Intl
To TAPA - Antigua - V C Bird Intl
Flight Number -
Tags decoded
Created
Modified
Stats Distance 100 nm / 185 km
Max Altitude 0 ft / 0 m
Waypoints 3
Social Downloads 4
Likes 0
Share VATSIM

Download

Looking for another format? Having issues loading an existing format? Contact us
Advertisement - Login to hide

Notes

Requested: TNCM TIKAL GOXAN TAPA

Route

TNCM TIKAL TAPA

ID Type Via Altitude Latitude Longitude Leg Dist Tot Dist Heading (true) Name
O TNCM APT - 0 ft / 0 m 18.04089˚ -63.10897˚ - 0 nm - St Maarten - Princess Juliana Intl
TIKAL FIX - 0 ft / 0 m 17.47381˚ -62.81800˚ 37 nm 37 nm 154° / 154° -
O TAPA APT - 0 ft / 0 m 17.13674˚ -61.79266˚ 62 nm 100 nm 109° / 109° Antigua - V C Bird Intl

Altitude Profile

Advertisement - Login to hide

TNCM

Details ICAO TNCM (SXM)
Name St Maarten - Princess Juliana Intl
Region Caribbean Netherlands, Aruba, Curaçao, Sint Maarten
Timezone Unknown (UTC+0.0)
Stats Elevation 12 ft / 4 m (AMSL)
Location 18.040889° -63.108974°
Runways 1
Magnetic Variation 14.339° W

METAR

TNCM 221000Z 11012KT 090V170 9999 FEW016 SCT035 27/22 Q1017 A3005 NOSIG

Decode

TAF

TNCM 220540Z 2206/2306 10008KT P6SM SCT018 SCT040 FM221130 10012KT P6SM VCTS SCT020CB BKN040 FM222300 10008KT P6SM VCSH SCT018

Decode

Departure Runways

ID Width Length Bearing (true) Bearing (mag) Surface Threshold Offset Overrun Length
10 148 ft / 45 m 7,464 ft / 2,275 m 81.43° 95.77° Asphalt 0 ft / 0 m 151 ft / 46 m
28 148 ft / 45 m 7,464 ft / 2,275 m 261.44° 275.78° Asphalt 397 ft / 121 m 0 ft / 0 m

TAPA

Details ICAO TAPA (ANU)
Name Antigua - V C Bird Intl
Region Antigua and Barbuda
Timezone America/Antigua (UTC-4.0)
Stats Elevation 62 ft / 19 m (AMSL)
Location 17.136737° -61.792662°
Runways 1
Magnetic Variation 14.778° W

METAR

TAPA 221000Z 11011KT 9999 FEW018 SCT038 27/21 Q1017 NOSIG

Decode

TAF

TAF TAPA 212300Z 2200/2224 10012KT 9999 SCT018 PROB30 TEMPO 2200/2206 SHRA PROB40 TEMPO 2206/2210 SHRA TEMPO 2210/2222 SHRA

Decode

Destination Runways

ID Width Length Bearing (true) Bearing (mag) Surface Threshold Offset Overrun Length
07 148 ft / 45 m 9,022 ft / 2,750 m 58.28° 73.06° Asphalt 656 ft / 200 m 0 ft / 0 m
25 148 ft / 45 m 9,022 ft / 2,750 m 238.29° 253.07° Asphalt 0 ft / 0 m 0 ft / 0 m

Popular Alternatives